createdAt,value
2022-11-24T00:00:43.944Z,1008.36
2022-11-24T00:01:44.499Z,1008.33
2022-11-24T00:02:45.160Z,1008.33
2022-11-24T00:03:45.863Z,1008.27
2022-11-24T00:04:46.478Z,1008.25
2022-11-24T00:05:47.040Z,1008.25
2022-11-24T00:06:47.596Z,1008.27
2022-11-24T00:07:48.207Z,1008.28
2022-11-24T00:08:48.787Z,1008.32
2022-11-24T00:09:49.416Z,1008.32
2022-11-24T00:10:49.969Z,1008.32
2022-11-24T00:11:50.528Z,1008.32
2022-11-24T00:12:51.084Z,1008.34
2022-11-24T00:13:51.644Z,1008.35
2022-11-24T00:14:52.295Z,1008.36
2022-11-24T00:15:52.852Z,1008.39
2022-11-24T00:16:53.452Z,1008.37
2022-11-24T00:17:54.047Z,1008.39
2022-11-24T00:18:54.600Z,1008.38
2022-11-24T00:19:55.193Z,1008.39
2022-11-24T00:20:55.749Z,1008.38
2022-11-24T00:21:56.297Z,1008.36
2022-11-24T00:22:56.851Z,1008.33
2022-11-24T00:23:57.402Z,1008.30
2022-11-24T00:24:57.988Z,1008.30
2022-11-24T00:25:58.545Z,1008.32
2022-11-24T00:26:59.095Z,1008.36
2022-11-24T00:27:59.653Z,1008.38
2022-11-24T00:29:00.209Z,1008.36
2022-11-24T00:30:00.984Z,1008.32
2022-11-24T00:31:01.641Z,1008.29
2022-11-24T00:32:02.308Z,1008.27
2022-11-24T00:33:02.868Z,1008.26
2022-11-24T00:34:03.448Z,1008.25
2022-11-24T00:35:04.114Z,1008.24
2022-11-24T00:36:04.670Z,1008.22
2022-11-24T00:37:05.226Z,1008.21
2022-11-24T00:38:05.779Z,1008.21
2022-11-24T00:39:06.335Z,1008.23
2022-11-24T00:40:06.945Z,1008.20
2022-11-24T00:41:07.498Z,1008.16
2022-11-24T00:42:08.065Z,1008.15
2022-11-24T00:43:08.616Z,1008.18
2022-11-24T00:44:09.168Z,1008.14
2022-11-24T00:45:13.935Z,1008.15
2022-11-24T00:46:10.509Z,1008.14
2022-11-24T00:47:11.243Z,1008.15
2022-11-24T00:48:11.895Z,1008.17
2022-11-24T00:49:12.457Z,1008.18
2022-11-24T00:50:13.074Z,1008.20
2022-11-24T00:51:13.635Z,1008.17
2022-11-24T00:52:14.191Z,1008.18
2022-11-24T00:53:14.759Z,1008.17
2022-11-24T00:54:15.315Z,1008.18
2022-11-24T00:55:15.913Z,1008.20
2022-11-24T00:56:16.462Z,1008.19
2022-11-24T00:57:17.010Z,1008.20
2022-11-24T00:58:17.565Z,1008.21
2022-11-24T00:59:18.123Z,1008.22
2022-11-24T01:00:18.860Z,1008.19
2022-11-24T01:01:19.445Z,1008.17
2022-11-24T01:02:20.162Z,1008.19
2022-11-24T01:03:20.739Z,1008.22
2022-11-24T01:04:21.304Z,1008.18
2022-11-24T01:05:21.900Z,1008.18
2022-11-24T01:06:22.456Z,1008.15
2022-11-24T01:07:23.102Z,1008.14
2022-11-24T01:08:23.725Z,1008.14
2022-11-24T01:09:24.283Z,1008.09
2022-11-24T01:10:24.915Z,1008.10
2022-11-24T01:11:25.464Z,1008.07
2022-11-24T01:12:26.013Z,1008.05
2022-11-24T01:13:26.572Z,1008.02
2022-11-24T01:14:27.126Z,1008.02
2022-11-24T01:15:27.943Z,1008.05
2022-11-24T01:16:28.559Z,1008.08
2022-11-24T01:17:29.120Z,1008.03
2022-11-24T01:18:29.675Z,1008.04
2022-11-24T01:19:30.224Z,1008.06
2022-11-24T01:20:30.842Z,1008.05
2022-11-24T01:21:31.399Z,1008.03
2022-11-24T01:22:31.955Z,1008.02
2022-11-24T01:23:32.506Z,1008.03
2022-11-24T01:24:33.546Z,1008.01
2022-11-24T01:25:33.914Z,1007.99
2022-11-24T01:26:34.466Z,1007.97
2022-11-24T01:27:35.023Z,1008.01
2022-11-24T01:28:35.617Z,1007.96
2022-11-24T01:29:36.171Z,1007.93
2022-11-24T01:30:36.908Z,1007.93
2022-11-24T01:31:37.471Z,1007.95
2022-11-24T01:32:38.027Z,1007.92
2022-11-24T01:33:38.579Z,1007.93
2022-11-24T01:34:39.135Z,1007.90
2022-11-24T01:35:39.723Z,1007.88
2022-11-24T01:36:40.279Z,1007.89
2022-11-24T01:37:40.830Z,1007.87
2022-11-24T01:38:41.393Z,1007.88
2022-11-24T01:39:41.942Z,1007.87
2022-11-24T01:40:42.529Z,1007.88
2022-11-24T01:41:43.098Z,1007.87
2022-11-24T01:42:43.652Z,1007.87
2022-11-24T01:43:44.209Z,1007.88
2022-11-24T01:44:44.771Z,1007.87
2022-11-24T01:45:45.602Z,1007.89
2022-11-24T01:46:46.223Z,1007.87
2022-11-24T01:47:46.785Z,1007.87
2022-11-24T01:48:47.731Z,1007.87
2022-11-24T01:49:48.295Z,1007.83
2022-11-24T01:50:48.908Z,1007.84
2022-11-24T01:51:49.463Z,1007.82
2022-11-24T01:52:50.022Z,1007.80
2022-11-24T01:53:50.566Z,1007.80
2022-11-24T01:54:51.117Z,1007.83
2022-11-24T01:55:51.717Z,1007.82
2022-11-24T01:56:52.277Z,1007.81
2022-11-24T01:57:52.862Z,1007.82
2022-11-24T01:58:53.438Z,1007.81
2022-11-24T01:59:54.003Z,1007.81
2022-11-24T02:00:54.740Z,1007.81
2022-11-24T02:01:55.436Z,1007.76
2022-11-24T02:02:56.049Z,1007.72
2022-11-24T02:03:56.686Z,1007.73
2022-11-24T02:05:58.389Z,1007.73
2022-11-24T02:06:58.951Z,1007.73
2022-11-24T02:07:59.531Z,1007.67
2022-11-24T02:09:00.095Z,1007.67
2022-11-24T02:10:00.649Z,1007.63
2022-11-24T02:11:01.297Z,1007.60
2022-11-24T02:12:01.853Z,1007.59
2022-11-24T02:13:02.407Z,1007.57
2022-11-24T02:14:02.967Z,1007.57
2022-11-24T02:15:03.521Z,1007.54
2022-11-24T02:16:04.226Z,1007.52
2022-11-24T02:17:04.806Z,1007.54
2022-11-24T02:18:05.365Z,1007.52
2022-11-24T02:19:05.920Z,1007.49
2022-11-24T02:20:06.475Z,1007.50
2022-11-24T02:21:07.060Z,1007.44
2022-11-24T02:22:07.612Z,1007.43
2022-11-24T02:23:08.160Z,1007.44
2022-11-24T02:24:08.704Z,1007.45
2022-11-24T02:25:09.255Z,1007.45
2022-11-24T02:26:09.863Z,1007.43
2022-11-24T02:27:10.421Z,1007.43
2022-11-24T02:28:10.975Z,1007.42
2022-11-24T02:29:11.526Z,1007.41
2022-11-24T02:30:12.078Z,1007.44
2022-11-24T02:31:12.865Z,1007.47
2022-11-24T02:32:13.447Z,1007.49
2022-11-24T02:33:14.006Z,1007.46
2022-11-24T02:34:14.558Z,1007.43
2022-11-24T02:35:15.113Z,1007.42
2022-11-24T02:36:15.735Z,1007.42
2022-11-24T02:37:16.293Z,1007.46
2022-11-24T02:38:16.847Z,1007.45
2022-11-24T02:39:17.395Z,1007.42
2022-11-24T02:40:17.952Z,1007.41
2022-11-24T02:41:18.543Z,1007.42
2022-11-24T02:42:19.104Z,1007.43
2022-11-24T02:43:19.662Z,1007.43
2022-11-24T02:44:20.216Z,1007.43
2022-11-24T02:45:20.775Z,1007.42
2022-11-24T02:46:21.634Z,1007.42
2022-11-24T02:47:22.232Z,1007.44
2022-11-24T02:48:22.794Z,1007.41
2022-11-24T02:49:23.355Z,1007.41
2022-11-24T02:50:23.917Z,1007.39
2022-11-24T02:51:24.505Z,1007.36
2022-11-24T02:52:25.057Z,1007.36
2022-11-24T02:53:25.616Z,1007.40
2022-11-24T02:54:26.177Z,1007.39
2022-11-24T02:55:26.738Z,1007.40
2022-11-24T02:56:27.339Z,1007.37
2022-11-24T02:57:27.904Z,1007.41
2022-11-24T02:58:28.466Z,1007.40
2022-11-24T02:59:29.018Z,1007.43
2022-11-24T03:00:29.596Z,1007.46
2022-11-24T03:01:30.364Z,1007.47
2022-11-24T03:02:31.029Z,1007.47
2022-11-24T03:03:31.636Z,1007.47
2022-11-24T03:04:32.709Z,1007.45
2022-11-24T03:05:32.973Z,1007.48
2022-11-24T03:06:33.557Z,1007.44
2022-11-24T03:07:34.179Z,1007.44
2022-11-24T03:08:34.775Z,1007.44
2022-11-24T03:09:35.339Z,1007.41
2022-11-24T03:10:35.912Z,1007.38
2022-11-24T03:11:36.576Z,1007.38
2022-11-24T03:12:37.130Z,1007.42
2022-11-24T03:13:37.696Z,1007.42
2022-11-24T03:14:38.246Z,1007.40
2022-11-24T03:15:38.896Z,1007.38
2022-11-24T03:16:39.742Z,1007.41
2022-11-24T03:17:40.302Z,1007.46
2022-11-24T03:18:40.851Z,1007.47
2022-11-24T03:19:41.412Z,1007.48
2022-11-24T03:20:41.968Z,1007.46
2022-11-24T03:21:42.577Z,1007.50
2022-11-24T03:22:43.144Z,1007.50
2022-11-24T03:23:43.701Z,1007.51
2022-11-24T03:24:44.257Z,1007.54
2022-11-24T03:25:44.813Z,1007.54
2022-11-24T03:26:45.407Z,1007.58
2022-11-24T03:27:45.966Z,1007.57
2022-11-24T03:28:46.523Z,1007.60
2022-11-24T03:29:47.074Z,1007.60
2022-11-24T03:30:47.674Z,1007.64
2022-11-24T03:31:48.397Z,1007.64
2022-11-24T03:32:48.950Z,1007.63
2022-11-24T03:33:49.501Z,1007.63
2022-11-24T03:34:50.061Z,1007.64
2022-11-24T03:35:50.624Z,1007.62
2022-11-24T03:36:51.215Z,1007.64
2022-11-24T03:37:51.769Z,1007.62
2022-11-24T03:38:52.328Z,1007.62
2022-11-24T03:39:52.887Z,1007.57
2022-11-24T03:40:53.460Z,1007.56
2022-11-24T03:41:54.044Z,1007.55
2022-11-24T03:42:54.604Z,1007.56
2022-11-24T03:43:55.168Z,1007.56
2022-11-24T03:44:55.727Z,1007.58
2022-11-24T03:45:56.401Z,1007.60
2022-11-24T03:46:57.087Z,1007.61
2022-11-24T03:47:57.643Z,1007.64
2022-11-24T03:48:58.198Z,1007.60
2022-11-24T03:49:58.757Z,1007.63
2022-11-24T03:50:59.311Z,1007.61
2022-11-24T03:52:03.869Z,1007.60
2022-11-24T03:53:00.840Z,1007.61
2022-11-24T03:54:01.393Z,1007.64
2022-11-24T03:55:01.942Z,1007.63
2022-11-24T03:56:02.513Z,1007.65
2022-11-24T03:57:03.119Z,1007.65
2022-11-24T03:58:03.677Z,1007.65
2022-11-24T03:59:04.230Z,1007.66
2022-11-24T04:00:04.788Z,1007.64
2022-11-24T04:01:05.372Z,1007.65
2022-11-24T04:02:06.229Z,1007.67
2022-11-24T04:03:06.947Z,1007.66
2022-11-24T04:04:07.566Z,1007.66
2022-11-24T04:05:08.122Z,1007.70
2022-11-24T04:06:08.692Z,1007.67
2022-11-24T04:07:09.344Z,1007.65
2022-11-24T04:08:09.934Z,1007.61
2022-11-24T04:09:10.504Z,1007.60
2022-11-24T04:10:11.061Z,1007.58
2022-11-24T04:11:11.622Z,1007.57
2022-11-24T04:12:12.256Z,1007.54
2022-11-24T04:13:12.810Z,1007.56
2022-11-24T04:14:13.917Z,1007.55
2022-11-24T04:15:14.066Z,1007.57
2022-11-24T04:16:14.693Z,1007.56
2022-11-24T04:17:15.520Z,1007.58
2022-11-24T04:18:16.068Z,1007.55
2022-11-24T04:19:16.924Z,1007.57
2022-11-24T04:20:17.477Z,1007.58
2022-11-24T04:21:18.029Z,1007.57
2022-11-24T04:22:19.224Z,1007.58
2022-11-24T04:23:19.275Z,1007.59
2022-11-24T04:24:19.823Z,1007.58
2022-11-24T04:25:20.369Z,1007.61
2022-11-24T04:26:20.920Z,1007.62
2022-11-24T04:27:21.508Z,1007.61
2022-11-24T04:28:22.062Z,1007.61
2022-11-24T04:29:22.615Z,1007.64
2022-11-24T04:30:23.197Z,1007.66
2022-11-24T04:31:23.835Z,1007.68
2022-11-24T04:32:24.559Z,1007.66
2022-11-24T04:33:25.135Z,1007.65
2022-11-24T04:34:25.697Z,1007.65
2022-11-24T04:35:26.256Z,1007.61
2022-11-24T04:36:26.831Z,1007.63
2022-11-24T04:37:27.420Z,1007.64
2022-11-24T04:39:24.246Z,1007.62
2022-11-24T04:39:29.040Z,1007.63
2022-11-24T04:40:29.639Z,1007.62
2022-11-24T04:41:30.208Z,1007.65
2022-11-24T04:43:35.157Z,1007.71
2022-11-24T04:44:32.965Z,1007.74
2022-11-24T04:45:33.208Z,1007.74
2022-11-24T04:46:33.832Z,1007.75
2022-11-24T04:47:34.546Z,1007.72
2022-11-24T04:48:35.100Z,1007.74
2022-11-24T04:49:35.679Z,1007.74
2022-11-24T04:50:36.250Z,1007.74
2022-11-24T04:51:36.799Z,1007.72
2022-11-24T04:52:37.397Z,1007.70
2022-11-24T04:53:37.957Z,1007.72
2022-11-24T04:54:38.506Z,1007.72
2022-11-24T04:55:39.083Z,1007.77
2022-11-24T04:56:39.646Z,1007.81
2022-11-24T04:57:40.289Z,1007.81
2022-11-24T04:58:40.843Z,1007.83
2022-11-24T04:59:41.391Z,1007.86
2022-11-24T05:00:41.912Z,1007.87
2022-11-24T05:01:42.464Z,1007.85
2022-11-24T05:02:43.206Z,1007.86
2022-11-24T05:03:43.699Z,1007.92
2022-11-24T05:04:44.286Z,1007.89
2022-11-24T05:05:44.833Z,1007.86
2022-11-24T05:06:45.325Z,1007.88
2022-11-24T05:07:46.405Z,1007.91
2022-11-24T05:08:46.431Z,1007.91
2022-11-24T05:09:58.851Z,1007.95
2022-11-24T05:10:47.789Z,1007.97
2022-11-24T05:11:48.299Z,1007.99
2022-11-24T05:12:51.367Z,1008.01
2022-11-24T05:13:49.501Z,1008.05
2022-11-24T05:14:50.015Z,1008.06
2022-11-24T05:15:50.583Z,1008.08
2022-11-24T05:16:51.105Z,1008.11
2022-11-24T05:17:51.749Z,1008.13
2022-11-24T05:18:52.268Z,1008.12
2022-11-24T05:19:52.824Z,1008.13
2022-11-24T05:20:52.276Z,1008.15
2022-11-24T05:21:53.840Z,1008.13
2022-11-24T05:22:54.409Z,1008.14
2022-11-24T05:23:54.932Z,1008.13
2022-11-24T05:24:55.461Z,1008.18
2022-11-24T05:25:55.993Z,1008.15
2022-11-24T05:26:56.515Z,1008.18
2022-11-24T05:27:57.108Z,1008.18
2022-11-24T05:28:57.645Z,1008.19
2022-11-24T05:29:58.177Z,1008.17
2022-11-24T05:30:58.758Z,1008.18
2022-11-24T05:31:59.309Z,1008.16
2022-11-24T05:32:59.898Z,1008.18
2022-11-24T05:34:00.416Z,1008.18
2022-11-24T05:35:00.941Z,1008.17
2022-11-24T05:36:01.474Z,1008.16
2022-11-24T05:37:02.049Z,1008.14
2022-11-24T05:38:02.617Z,1008.12
2022-11-24T05:39:03.140Z,1008.16
2022-11-24T05:40:03.686Z,1008.14
2022-11-24T05:41:04.208Z,1008.17
2022-11-24T05:42:04.749Z,1008.18
2022-11-24T05:43:05.336Z,1008.19
2022-11-24T05:44:05.853Z,1008.22
2022-11-24T05:45:06.400Z,1008.23
2022-11-24T05:46:06.939Z,1008.28
2022-11-24T05:47:07.525Z,1008.29
2022-11-24T05:48:08.175Z,1008.30
2022-11-24T05:49:08.707Z,1008.26
2022-11-24T05:50:09.248Z,1008.24
2022-11-24T05:51:09.790Z,1008.24
2022-11-24T05:52:10.421Z,1008.22
2022-11-24T05:55:10.975Z,1008.24
2022-11-24T05:56:01.996Z,1008.26
2022-11-24T05:57:02.381Z,1008.25
2022-11-24T05:58:09.273Z,1008.27
2022-11-24T05:59:09.449Z,1008.27
2022-11-24T06:00:04.216Z,1008.27
2022-11-24T06:01:04.741Z,1008.28
2022-11-24T06:02:05.918Z,1008.29
2022-11-24T06:03:06.153Z,1008.32
2022-11-24T06:04:07.779Z,1008.30
2022-11-24T06:05:07.695Z,1008.31
2022-11-24T06:06:08.211Z,1008.32
2022-11-24T06:07:08.814Z,1008.33
2022-11-24T06:08:09.592Z,1008.35
2022-11-24T06:09:10.405Z,1008.36
2022-11-24T06:10:13.966Z,1008.37
2022-11-24T06:11:14.099Z,1008.38
2022-11-24T06:12:15.770Z,1008.37
2022-11-24T06:13:13.366Z,1008.38
2022-11-24T06:14:14.203Z,1008.38
2022-11-24T06:15:21.042Z,1008.38
2022-11-24T06:16:15.445Z,1008.37
2022-11-24T06:17:22.611Z,1008.35
2022-11-24T06:20:05.521Z,1008.34
2022-11-24T06:21:11.137Z,1008.36
2022-11-24T06:22:07.914Z,1008.34
2022-11-24T06:24:18.984Z,1008.35
2022-11-24T06:25:21.400Z,1008.37
2022-11-24T06:26:28.202Z,1008.38
2022-11-24T06:27:22.377Z,1008.41
2022-11-24T06:28:23.497Z,1008.40
2022-11-24T06:29:23.516Z,1008.43
2022-11-24T06:30:24.149Z,1008.41
2022-11-24T06:31:24.764Z,1008.48
2022-11-24T06:32:25.518Z,1008.46
2022-11-24T06:33:26.140Z,1008.51
2022-11-24T06:34:27.147Z,1008.54
2022-11-24T06:35:28.244Z,1008.54
2022-11-24T06:36:27.806Z,1008.57
2022-11-24T06:37:28.342Z,1008.58
2022-11-24T06:38:28.899Z,1008.59
2022-11-24T06:39:29.448Z,1008.63
2022-11-24T06:40:29.989Z,1008.65
2022-11-24T06:41:30.798Z,1008.64
2022-11-24T06:42:39.040Z,1008.63
2022-11-24T06:43:32.386Z,1008.63
2022-11-24T06:44:33.037Z,1008.64
2022-11-24T06:45:33.349Z,1008.64
2022-11-24T06:46:35.435Z,1008.65
2022-11-24T06:47:34.687Z,1008.62
2022-11-24T06:48:41.508Z,1008.70
2022-11-24T06:49:36.001Z,1008.65
2022-11-24T06:50:36.721Z,1008.63
2022-11-24T06:51:37.274Z,1008.61
2022-11-24T06:52:37.789Z,1008.64
2022-11-24T06:53:38.471Z,1008.61
2022-11-24T06:54:39.036Z,1008.57
2022-11-24T06:55:39.587Z,1008.61
2022-11-24T06:56:40.106Z,1008.53
2022-11-24T06:57:40.638Z,1008.60
2022-11-24T06:58:41.255Z,1008.66
2022-11-24T06:59:41.903Z,1008.71
2022-11-24T07:00:42.617Z,1008.76
2022-11-24T07:01:43.242Z,1008.78
2022-11-24T07:04:53.960Z,1008.87
2022-11-24T07:05:34.392Z,1008.88
2022-11-24T07:06:35.053Z,1008.87
2022-11-24T07:07:37.083Z,1008.90
2022-11-24T07:08:38.281Z,1008.90
2022-11-24T07:09:36.984Z,1008.91
2022-11-24T07:10:37.513Z,1008.90
2022-11-24T07:11:38.074Z,1008.86
2022-11-24T07:12:39.322Z,1008.88
2022-11-24T07:13:39.349Z,1008.88
2022-11-24T07:14:39.887Z,1008.92
2022-11-24T07:15:40.429Z,1008.93
2022-11-24T07:16:41.090Z,1008.95
2022-11-24T07:17:41.659Z,1008.98
2022-11-24T07:18:42.185Z,1008.99
2022-11-24T07:19:42.746Z,1008.99
2022-11-24T07:20:43.286Z,1009.00
2022-11-24T07:21:43.962Z,1008.98
2022-11-24T07:22:44.487Z,1009.00
2022-11-24T07:23:45.036Z,1008.98
2022-11-24T07:24:45.573Z,1008.99
2022-11-24T07:25:46.122Z,1008.98
2022-11-24T07:26:46.710Z,1008.99
2022-11-24T07:27:47.242Z,1009.01
2022-11-24T07:28:47.849Z,1009.01
2022-11-24T07:29:48.429Z,1009.03
2022-11-24T07:30:48.990Z,1009.03
2022-11-24T07:31:49.639Z,1009.03
2022-11-24T07:32:50.491Z,1009.03
2022-11-24T07:33:51.032Z,1009.04
2022-11-24T07:34:52.107Z,1009.05
2022-11-24T07:35:52.201Z,1009.09
2022-11-24T07:36:52.816Z,1009.10
2022-11-24T07:37:53.352Z,1009.10
2022-11-24T07:38:53.873Z,1009.12
2022-11-24T07:39:54.405Z,1009.01
2022-11-24T07:40:55.143Z,1009.05
2022-11-24T07:41:55.700Z,1009.02
2022-11-24T07:42:56.254Z,1009.09
2022-11-24T07:43:56.903Z,1009.03
2022-11-24T07:44:57.430Z,1009.06
2022-11-24T07:46:06.167Z,1009.09
2022-11-24T07:46:58.722Z,1009.04
2022-11-24T07:47:59.267Z,1009.04
2022-11-24T07:48:59.806Z,1009.00
2022-11-24T07:50:01.199Z,1009.04
2022-11-24T07:51:01.303Z,1009.00
2022-11-24T07:52:01.957Z,1009.02
2022-11-24T07:53:02.476Z,1008.99
2022-11-24T07:54:03.212Z,1008.97
2022-11-24T07:55:03.735Z,1008.96
2022-11-24T07:56:04.293Z,1008.95
2022-11-24T07:57:05.066Z,1008.91
2022-11-24T07:58:05.677Z,1008.99
2022-11-24T07:59:06.215Z,1008.91
2022-11-24T08:00:06.824Z,1008.99
2022-11-24T08:01:07.415Z,1008.99
2022-11-24T08:02:08.048Z,1009.02
2022-11-24T08:03:10.276Z,1009.02
2022-11-24T08:04:09.511Z,1009.06
2022-11-24T08:05:11.231Z,1009.04
2022-11-24T08:06:30.284Z,1009.04
2022-11-24T08:07:11.814Z,1009.00
2022-11-24T08:08:12.372Z,1009.06
2022-11-24T08:09:12.907Z,1009.04
2022-11-24T08:10:13.428Z,1009.02
2022-11-24T08:11:13.951Z,1009.02
2022-11-24T08:12:14.713Z,1009.03
2022-11-24T08:13:15.553Z,1009.05
2022-11-24T08:14:16.225Z,1009.09
2022-11-24T08:15:16.748Z,1009.08
2022-11-24T08:16:17.485Z,1009.07
2022-11-24T08:17:18.948Z,1009.05
2022-11-24T08:18:20.272Z,1009.11
2022-11-24T08:19:20.380Z,1009.14
2022-11-24T08:20:20.410Z,1009.11
2022-11-24T08:21:20.947Z,1009.14
2022-11-24T08:22:21.587Z,1009.09
2022-11-24T08:23:22.165Z,1009.09
2022-11-24T08:24:22.728Z,1009.01
2022-11-24T08:25:23.255Z,1009.10
2022-11-24T08:26:23.801Z,1009.10
2022-11-24T08:27:24.494Z,1009.11
2022-11-24T08:28:25.022Z,1009.09
2022-11-24T08:29:25.661Z,1009.07
2022-11-24T08:30:26.213Z,1009.12
2022-11-24T08:31:26.835Z,1009.20
2022-11-24T08:32:32.096Z,1009.08
2022-11-24T08:33:28.364Z,1009.10
2022-11-24T08:34:28.914Z,1009.05
2022-11-24T08:35:29.445Z,1009.08
2022-11-24T08:36:29.963Z,1009.15
2022-11-24T08:37:30.658Z,1009.11
2022-11-24T08:38:31.197Z,1008.98
2022-11-24T08:39:31.713Z,1009.06
2022-11-24T08:40:32.233Z,1009.11
2022-11-24T08:41:32.775Z,1009.10
2022-11-24T08:42:33.338Z,1009.18
2022-11-24T08:43:33.869Z,1009.12
2022-11-24T08:44:34.662Z,1009.17
2022-11-24T08:45:39.853Z,1009.17
2022-11-24T08:46:36.357Z,1009.18
2022-11-24T08:47:37.001Z,1009.21
2022-11-24T08:48:37.748Z,1009.15
2022-11-24T08:49:39.273Z,1009.19
2022-11-24T08:50:54.534Z,1009.17
2022-11-24T08:51:42.892Z,1009.16
2022-11-24T08:52:53.385Z,1009.15
2022-11-24T08:53:46.856Z,1009.10
2022-11-24T08:54:42.482Z,1009.13
2022-11-24T08:55:43.006Z,1009.17
2022-11-24T08:56:43.538Z,1009.16
2022-11-24T08:57:44.197Z,1009.14
2022-11-24T08:58:44.807Z,1009.12
2022-11-24T08:59:49.333Z,1009.13
2022-11-24T09:00:46.174Z,1009.17
2022-11-24T09:01:47.087Z,1009.20
2022-11-24T09:02:47.263Z,1009.18
2022-11-24T09:03:50.819Z,1009.17
2022-11-24T09:04:48.402Z,1009.16
2022-11-24T09:05:52.246Z,1009.14
2022-11-24T09:06:50.155Z,1009.07
2022-11-24T09:07:50.761Z,1009.05
2022-11-24T09:08:51.925Z,1009.08
2022-11-24T09:09:51.948Z,1009.08
2022-11-24T09:10:52.486Z,1009.05
2022-11-24T09:11:53.022Z,1009.04
2022-11-24T09:12:53.622Z,1009.10
2022-11-24T09:13:54.929Z,1009.10
2022-11-24T09:14:55.186Z,1009.07
2022-11-24T09:15:55.718Z,1009.09
2022-11-24T09:16:56.353Z,1009.10
2022-11-24T09:17:56.937Z,1009.08
2022-11-24T09:18:57.544Z,1009.07
2022-11-24T09:19:58.089Z,1009.07
2022-11-24T09:20:58.660Z,1009.06
2022-11-24T09:21:59.317Z,1009.06
2022-11-24T09:23:02.854Z,1009.05
2022-11-24T09:24:01.810Z,1009.02
2022-11-24T09:25:04.446Z,1009.05
2022-11-24T09:26:15.433Z,1009.02
2022-11-24T09:27:27.888Z,1009.05
2022-11-24T09:29:53.691Z,1008.99
2022-11-24T09:30:55.025Z,1009.00
2022-11-24T09:32:03.486Z,1009.01
2022-11-24T09:32:56.625Z,1008.99
2022-11-24T09:33:57.191Z,1009.03
2022-11-24T09:34:57.740Z,1009.04
2022-11-24T09:35:58.586Z,1009.05
2022-11-24T09:36:59.115Z,1009.05
2022-11-24T09:37:59.659Z,1009.09
2022-11-24T09:39:00.287Z,1009.08
2022-11-24T09:40:01.079Z,1009.03
2022-11-24T09:41:01.610Z,1009.04
2022-11-24T09:42:02.160Z,1009.04
2022-11-24T09:43:02.697Z,1009.06
2022-11-24T09:44:03.229Z,1009.09
2022-11-24T09:45:03.790Z,1009.10
2022-11-24T09:49:46.125Z,1009.14
2022-11-24T09:50:48.886Z,1009.18
2022-11-24T09:51:44.207Z,1009.12
2022-11-24T09:52:44.742Z,1009.10
2022-11-24T09:53:45.262Z,1009.10
2022-11-24T09:54:47.157Z,1009.10
2022-11-24T09:55:50.513Z,1009.07
2022-11-24T09:56:47.585Z,1009.07
2022-11-24T09:57:48.203Z,1009.08
2022-11-24T09:58:48.807Z,1009.09
2022-11-24T09:59:49.398Z,1009.09
2022-11-24T10:00:49.980Z,1009.08
2022-11-24T10:01:50.585Z,1009.07
2022-11-24T10:02:51.161Z,1009.08
2022-11-24T10:03:51.688Z,1008.98
2022-11-24T10:04:52.423Z,1008.98
2022-11-24T10:05:53.175Z,1009.04
2022-11-24T10:06:53.987Z,1009.03
2022-11-24T10:07:54.559Z,1009.04
2022-11-24T10:08:55.306Z,1009.06
2022-11-24T10:09:57.822Z,1009.08
2022-11-24T10:10:56.640Z,1009.10
2022-11-24T10:11:57.545Z,1009.09
2022-11-24T10:12:58.071Z,1009.09
2022-11-24T10:13:58.598Z,1009.07
2022-11-24T10:14:59.156Z,1009.03
2022-11-24T10:15:59.817Z,1009.03
2022-11-24T10:17:00.371Z,1009.00
2022-11-24T10:18:01.072Z,1009.01
2022-11-24T10:19:01.614Z,1009.00
2022-11-24T10:20:02.143Z,1009.10
2022-11-24T10:21:02.752Z,1009.01
2022-11-24T10:22:03.280Z,1009.08
2022-11-24T10:23:03.814Z,1009.08
2022-11-24T10:24:04.538Z,1008.97
2022-11-24T10:25:05.135Z,1009.02
2022-11-24T10:26:05.797Z,1009.01
2022-11-24T10:27:14.551Z,1008.97
2022-11-24T10:28:08.558Z,1008.97
2022-11-24T10:29:08.558Z,1008.94
2022-11-24T10:30:09.862Z,1008.92
2022-11-24T10:31:09.684Z,1008.91
2022-11-24T10:32:10.260Z,1008.92
2022-11-24T10:33:10.772Z,1008.91
2022-11-24T10:34:11.299Z,1008.90
2022-11-24T10:35:16.037Z,1008.87
2022-11-24T10:36:12.587Z,1008.86
2022-11-24T10:37:13.104Z,1008.87
2022-11-24T10:38:13.622Z,1008.87
2022-11-24T10:39:14.253Z,1008.82
2022-11-24T10:40:40.978Z,1008.81
2022-11-24T10:41:18.839Z,1008.82
2022-11-24T10:42:15.893Z,1008.80
2022-11-24T10:43:16.561Z,1008.85
2022-11-24T10:44:17.100Z,1008.83
2022-11-24T10:45:17.676Z,1008.84
2022-11-24T10:46:18.302Z,1008.87
2022-11-24T10:47:18.882Z,1008.87
2022-11-24T10:48:19.385Z,1008.85
2022-11-24T10:49:19.887Z,1008.85
2022-11-24T10:50:20.407Z,1008.81
2022-11-24T10:51:21.018Z,1008.78
2022-11-24T10:52:36.544Z,1008.76
2022-11-24T10:53:25.337Z,1008.73
2022-11-24T10:54:48.992Z,1008.74
2022-11-24T10:55:42.050Z,1008.72
2022-11-24T10:56:24.283Z,1008.75
2022-11-24T10:57:24.821Z,1008.75
2022-11-24T10:58:25.354Z,1008.71
2022-11-24T10:59:25.880Z,1008.73
2022-11-24T11:00:26.424Z,1008.75
2022-11-24T11:01:26.999Z,1008.73
2022-11-24T11:02:27.657Z,1008.73
2022-11-24T11:03:28.205Z,1008.75
2022-11-24T11:04:28.723Z,1008.76
2022-11-24T11:05:29.499Z,1008.80
2022-11-24T11:06:30.006Z,1008.73
2022-11-24T11:07:30.642Z,1008.74
2022-11-24T11:08:31.293Z,1008.76
2022-11-24T11:09:31.941Z,1008.79
2022-11-24T11:10:32.582Z,1008.75
2022-11-24T11:11:33.238Z,1008.76
2022-11-24T11:12:43.757Z,1008.76
2022-11-24T11:13:34.913Z,1008.74
2022-11-24T11:14:35.362Z,1008.75
2022-11-24T11:15:36.129Z,1008.77
2022-11-24T11:16:50.174Z,1008.78
2022-11-24T11:17:54.453Z,1008.74
2022-11-24T11:18:42.304Z,1008.78
2022-11-24T11:20:01.624Z,1008.72
2022-11-24T11:20:39.561Z,1008.77
2022-11-24T11:21:40.157Z,1008.73
2022-11-24T11:22:41.652Z,1008.78
2022-11-24T11:23:41.171Z,1008.74
2022-11-24T11:24:41.696Z,1008.73
2022-11-24T11:25:42.244Z,1008.77
2022-11-24T11:26:42.835Z,1008.70
2022-11-24T11:27:43.348Z,1008.72
2022-11-24T11:28:43.884Z,1008.77
2022-11-24T11:34:02.830Z,1008.72
2022-11-24T11:34:05.340Z,1008.70
2022-11-24T11:34:48.719Z,1008.70
2022-11-24T11:35:49.295Z,1008.65
2022-11-24T11:36:49.864Z,1008.69
2022-11-24T11:37:50.387Z,1008.65
2022-11-24T11:38:50.913Z,1008.70
2022-11-24T11:39:51.432Z,1008.63
2022-11-24T11:40:52.051Z,1008.61
2022-11-24T11:41:52.640Z,1008.65
2022-11-24T11:43:08.545Z,1008.62
2022-11-24T11:43:54.017Z,1008.60
2022-11-24T11:44:54.705Z,1008.64
2022-11-24T11:45:55.697Z,1008.62
2022-11-24T11:46:56.615Z,1008.58
2022-11-24T11:47:57.167Z,1008.61
2022-11-24T11:48:58.183Z,1008.57
2022-11-24T11:49:58.243Z,1008.55
2022-11-24T11:51:22.195Z,1008.52
2022-11-24T11:51:59.708Z,1008.52
2022-11-24T11:53:00.218Z,1008.51
2022-11-24T11:54:00.808Z,1008.54
2022-11-24T11:55:01.351Z,1008.49
2022-11-24T11:56:01.954Z,1008.54
2022-11-24T11:57:02.610Z,1008.48
2022-11-24T11:58:03.160Z,1008.57
2022-11-24T11:59:03.692Z,1008.51
2022-11-24T12:00:04.220Z,1008.55
2022-11-24T12:01:04.827Z,1008.53
2022-11-24T12:02:06.804Z,1008.53
2022-11-24T12:03:06.874Z,1008.52
2022-11-24T12:04:07.196Z,1008.54
2022-11-24T12:05:07.858Z,1008.51
2022-11-24T12:06:14.875Z,1008.49
2022-11-24T12:07:09.271Z,1008.47
2022-11-24T12:08:13.412Z,1008.52
2022-11-24T12:09:26.020Z,1008.47
2022-11-24T12:10:11.606Z,1008.52
2022-11-24T12:11:12.160Z,1008.57
2022-11-24T12:12:12.804Z,1008.53
2022-11-24T12:13:13.328Z,1008.56
2022-11-24T12:14:13.840Z,1008.55
2022-11-24T12:15:14.371Z,1008.57
2022-11-24T12:16:14.941Z,1008.57
2022-11-24T12:17:15.505Z,1008.68
2022-11-24T12:18:33.525Z,1008.61
2022-11-24T12:19:16.885Z,1008.71
2022-11-24T12:20:17.389Z,1008.69
2022-11-24T12:21:24.626Z,1008.67
2022-11-24T12:22:18.847Z,1008.69
2022-11-24T12:23:19.369Z,1008.73
2022-11-24T12:24:19.927Z,1008.78
2022-11-24T12:25:20.466Z,1008.85
2022-11-24T12:26:22.716Z,1008.87
2022-11-24T12:27:23.362Z,1008.80
2022-11-24T12:28:22.541Z,1008.78
2022-11-24T12:29:23.062Z,1008.78
2022-11-24T12:30:23.582Z,1008.78